• Join FlightAware (Why Join?)
  • Login
  • US Flag 
04:17PM EDT


 

Airport Tracker/Info


-or-


 

Live Flight TrackerFlight Track Log ✈ EJA922 ✈ 08-Jul-2013 ✈ KCRW - KTOL

Flight Track Log - Related Links

Times and Time Zones

All times are in EDT time to prevent confusion due to time zone crossing. See the EJA922 flight status page for this flight to view local times or setup timezone preferences in your user account.

Time Position Orientation Groundspeed Altitude Reporting Facility
EDT Latitude Longitude Course Direction KTS MPH feet Rate Location/Type
07:40AM 38.3975 -81.6933 308° West 269 310 7,600  Level Indianapolis Center
07:41AM 38.4600 -81.7542 323° Northwest 278 320 10,000 1,920 Climbing Indianapolis Center
07:42AM 38.5314 -81.8183 325° Northwest 306 352 11,600 2,160 Climbing Indianapolis Center
07:43AM 38.6047 -81.8878 324° Northwest 323 372 14,500 2,580 Climbing Indianapolis Center
07:44AM 38.6836 -81.9606 324° Northwest 342 394 16,900 2,040 Climbing Indianapolis Center
07:45AM 38.7700 -82.0333 327° Northwest 366 421 18,700 1,020 Climbing Indianapolis Center
07:46AM 38.8753 -82.0742 343° North 391 450 19,000 120 Climbing Indianapolis Center
07:47AM 38.9842 -82.1169 343° North 405 466 19,000  Level Indianapolis Center
07:48AM 39.0936 -82.1622 342° North 409 471 19,000  Level Indianapolis Center
07:49AM 39.2042 -82.2056 343° North 412 474 19,100 360 Climbing Indianapolis Center
07:50AM 39.3356 -82.2569 343° North 409 471 19,800 420 Climbing Indianapolis Center
07:51AM 39.4419 -82.3006 342° North 401 461 20,000 60 Climbing Indianapolis Center
07:52AM 39.5444 -82.3403 343° North 403 464 20,000  Level Indianapolis Center
07:53AM 39.6544 -82.3856 342° North 410 472 20,000  Level Indianapolis Center
07:54AM 39.7633 -82.4300 343° North 408 470 20,000  Level Indianapolis Center
07:55AM 39.8725 -82.4744 343° North 408 470 20,000  Level Indianapolis Center
07:56AM 40.0011 -82.5281 342° North 411 473 20,000  Level Indianapolis Center
07:57AM 40.1111 -82.5719 343° North 411 473 20,000  Level Indianapolis Center
07:58AM 40.2164 -82.6389 334° Northwest 422 486 20,000  Level Indianapolis Center
07:59AM 40.3114 -82.7000 334° Northwest 415 478 20,000  Level Indianapolis Center
08:00AM 40.4247 -82.7453 343° North 420 483 20,000  Level Indianapolis Center
08:01AM 40.5319 -82.8042 337° Northwest 423 487 20,000  Level Indianapolis Center
08:02AM 40.6453 -82.9028 327° Northwest 415 478 20,000 -240 Level Indianapolis Center
08:04AM 40.7408 -82.9936 324° Northwest 418 481 19,600 -1,080 Descending Indianapolis Center
08:05AM 40.8397 -83.0867 325° Northwest 430 495 17,800 -1,800 Descending Indianapolis Center
08:05AM 40.8889 -83.1458 318° Northwest 427 491 16,800 -2,220 Descending Cleveland Center
08:06AM 40.9636 -83.2506 313° West 404 465 14,400 -2,400 Descending Cleveland Center
08:07AM 41.0278 -83.3522 310° West 375 432 12,000 -2,280 Descending Cleveland Center
08:08AM 41.0572 -83.3911 315° West 355 409 11,000 -2,100 Descending Indianapolis Center
08:09AM 41.1111 -83.4667 313° West 290 334 8,800 -2,280 Descending Indianapolis Center
08:10AM 41.1736 -83.5222 326° Northwest 272 313 6,400 -2,100 Descending Indianapolis Center
08:11AM 41.2339 -83.5619 334° Northwest 249 287 4,500 -1,920 Descending Indianapolis Center